createdAt,value
2018-04-18T00:00:38.235Z,21.90
2018-04-18T00:03:08.792Z,23.35
2018-04-18T00:05:39.122Z,21.45
2018-04-18T00:08:15.307Z,21.82
2018-04-18T00:10:44.300Z,23.50
2018-04-18T00:13:13.328Z,26.33
2018-04-18T00:15:44.070Z,22.98
2018-04-18T00:18:13.042Z,22.00
2018-04-18T00:20:43.719Z,21.83
2018-04-18T00:23:16.325Z,20.67
2018-04-18T00:25:57.270Z,22.06
2018-04-18T00:28:26.257Z,25.17
2018-04-18T00:30:55.690Z,24.42
2018-04-18T00:33:24.848Z,22.60
2018-04-18T00:35:53.835Z,20.75
2018-04-18T00:38:22.808Z,20.20
2018-04-18T00:40:52.467Z,20.27
2018-04-18T00:43:23.051Z,20.36
2018-04-18T00:45:52.992Z,26.05
2018-04-18T00:48:23.778Z,29.72
2018-04-18T00:50:52.874Z,26.60
2018-04-18T00:53:23.937Z,25.00
2018-04-18T00:55:54.574Z,21.08
2018-04-18T00:58:28.680Z,22.40
2018-04-18T01:00:57.766Z,24.27
2018-04-18T01:03:30.771Z,23.05
2018-04-18T01:05:59.825Z,20.27
2018-04-18T01:08:28.930Z,25.70
2018-04-18T01:11:03.551Z,30.76
2018-04-18T01:13:34.271Z,32.56
2018-04-18T01:16:04.964Z,32.92
2018-04-18T01:18:35.894Z,30.52
2018-04-18T01:21:06.028Z,26.83
2018-04-18T01:23:36.534Z,21.87
2018-04-18T01:26:07.076Z,24.20
2018-04-18T01:28:36.090Z,23.57
2018-04-18T01:31:06.421Z,22.90
2018-04-18T01:33:35.427Z,24.57
2018-04-18T01:36:04.413Z,24.83
2018-04-18T01:38:33.470Z,23.93
2018-04-18T01:41:02.466Z,24.03
2018-04-18T01:43:31.750Z,25.45
2018-04-18T01:46:00.793Z,28.00
2018-04-18T01:48:29.818Z,27.87
2018-04-18T01:50:58.794Z,26.57
2018-04-18T01:53:27.842Z,26.47
2018-04-18T01:55:56.906Z,26.80
2018-04-18T01:58:25.942Z,25.50
2018-04-18T02:00:55.182Z,24.02
2018-04-18T02:03:24.463Z,24.00
2018-04-18T02:05:53.474Z,24.70
2018-04-18T02:08:23.044Z,23.67
2018-04-18T02:10:52.206Z,18.17
2018-04-18T02:13:21.178Z,18.00
2018-04-18T02:15:50.210Z,17.40
2018-04-18T02:18:19.242Z,17.90
2018-04-18T02:20:48.664Z,17.83
2018-04-18T02:23:17.712Z,17.67
2018-04-18T02:25:46.840Z,18.03
2018-04-18T02:28:16.096Z,17.70
2018-04-18T02:30:45.490Z,18.87
2018-04-18T02:33:14.777Z,18.33
2018-04-18T02:35:43.625Z,18.33
2018-04-18T02:38:12.682Z,19.33
2018-04-18T02:40:41.793Z,18.77
2018-04-18T02:43:10.992Z,18.83
2018-04-18T02:45:39.923Z,19.70
2018-04-18T02:48:09.209Z,20.55
2018-04-18T02:50:38.385Z,19.70
2018-04-18T02:53:07.526Z,21.17
2018-04-18T02:55:36.495Z,22.33
2018-04-18T02:58:05.528Z,22.03
2018-04-18T03:00:34.600Z,22.60
2018-04-18T03:03:03.365Z,21.87
2018-04-18T03:05:32.690Z,21.23
2018-04-18T03:08:01.764Z,20.87
2018-04-18T03:10:30.843Z,21.20
2018-04-18T03:12:59.790Z,21.83
2018-04-18T03:15:28.971Z,20.03
2018-04-18T03:17:58.221Z,18.58
2018-04-18T03:20:27.063Z,16.77
2018-04-18T03:22:56.206Z,16.20
2018-04-18T03:25:25.256Z,15.63
2018-04-18T03:27:54.373Z,16.63
2018-04-18T03:30:23.486Z,16.23
2018-04-18T03:32:52.539Z,16.93
2018-04-18T03:35:21.589Z,15.07
2018-04-18T03:37:50.914Z,13.85
2018-04-18T03:40:19.915Z,15.60
2018-04-18T03:42:49.237Z,16.67
2018-04-18T03:45:18.362Z,16.23
2018-04-18T03:47:47.182Z,16.23
2018-04-18T03:50:16.357Z,17.17
2018-04-18T03:52:45.386Z,17.47
2018-04-18T03:55:14.380Z,17.00
2018-04-18T03:57:43.357Z,17.63
2018-04-18T04:00:12.511Z,17.83
2018-04-18T04:02:41.832Z,18.07
2018-04-18T04:05:10.830Z,16.67
2018-04-18T04:07:40.227Z,17.83
2018-04-18T04:10:09.024Z,18.00
2018-04-18T04:12:37.986Z,17.77
2018-04-18T04:15:07.803Z,18.60
2018-04-18T04:17:47.823Z,19.47
2018-04-18T04:20:27.838Z,22.50
2018-04-18T04:23:09.498Z,20.80
2018-04-18T04:25:38.593Z,21.27
2018-04-18T04:28:07.602Z,20.03
2018-04-18T04:30:36.538Z,18.93
2018-04-18T04:33:05.669Z,20.93
2018-04-18T04:35:34.617Z,21.27
2018-04-18T04:38:03.858Z,21.17
2018-04-18T04:40:32.931Z,22.80
2018-04-18T04:43:02.242Z,27.60
2018-04-18T04:45:31.578Z,29.67
2018-04-18T04:48:00.606Z,31.43
2018-04-18T04:50:29.690Z,34.83
2018-04-18T04:52:59.457Z,35.60
2018-04-18T04:55:28.758Z,37.95
2018-04-18T04:57:58.008Z,38.55
2018-04-18T05:00:27.127Z,38.42
2018-04-18T05:02:56.214Z,37.97
2018-04-18T05:05:25.212Z,39.63
2018-04-18T05:07:54.186Z,43.00
2018-04-18T05:10:23.461Z,45.30
2018-04-18T05:12:52.514Z,42.57
2018-04-18T05:15:22.425Z,45.57
2018-04-18T05:17:51.801Z,45.25
2018-04-18T05:20:21.074Z,46.47
2018-04-18T05:22:50.549Z,48.60
2018-04-18T05:25:19.912Z,46.85
2018-04-18T05:27:49.517Z,48.35
2018-04-18T05:30:18.652Z,45.65
2018-04-18T05:32:47.954Z,46.85
2018-04-18T05:35:18.655Z,48.69
2018-04-18T05:37:47.983Z,50.47
2018-04-18T05:40:17.470Z,49.05
2018-04-18T05:42:46.424Z,49.55
2018-04-18T05:45:15.903Z,47.90
2018-04-18T05:47:46.155Z,51.08
2018-04-18T05:50:17.101Z,52.15
2018-04-18T05:52:48.282Z,52.08
2018-04-18T05:55:21.563Z,52.78
2018-04-18T05:57:52.929Z,53.38
2018-04-18T06:00:21.884Z,51.20
2018-04-18T06:02:52.514Z,49.88
2018-04-18T06:05:21.971Z,50.10
2018-04-18T06:07:53.394Z,49.22
2018-04-18T06:10:25.301Z,51.33
2018-04-18T06:12:54.121Z,50.83
2018-04-18T06:15:25.797Z,48.47
2018-04-18T06:17:56.305Z,49.90
2018-04-18T06:20:29.484Z,53.33
2018-04-18T06:23:03.628Z,48.24
2018-04-18T06:25:34.109Z,48.82
2018-04-18T06:28:03.656Z,48.73
2018-04-18T06:30:33.059Z,50.57
2018-04-18T06:33:03.575Z,46.34
2018-04-18T06:35:35.117Z,45.66
2018-04-18T06:38:07.605Z,44.60
2018-04-18T06:40:36.415Z,39.23
2018-04-18T06:43:06.583Z,39.93
2018-04-18T06:45:38.475Z,39.68
2018-04-18T06:48:07.464Z,38.63
2018-04-18T06:50:39.002Z,37.85
2018-04-18T06:53:09.800Z,38.92
2018-04-18T06:55:41.554Z,38.06
2018-04-18T06:58:12.687Z,37.40
2018-04-18T07:00:41.762Z,33.20
2018-04-18T07:03:13.100Z,28.80
2018-04-18T07:05:49.041Z,27.17
2018-04-18T07:08:18.071Z,26.65
2018-04-18T07:10:47.963Z,24.05
2018-04-18T07:13:18.726Z,23.20
2018-04-18T07:15:49.549Z,23.12
2018-04-18T07:18:20.310Z,23.12
2018-04-18T07:20:51.218Z,23.40
2018-04-18T07:23:22.948Z,24.06
2018-04-18T07:25:53.679Z,22.98
2018-04-18T07:28:24.487Z,21.55
2018-04-18T07:30:55.425Z,21.90
2018-04-18T07:33:26.449Z,21.25
2018-04-18T07:35:57.373Z,19.87
2018-04-18T07:38:28.311Z,19.30
2018-04-18T07:40:59.473Z,16.30
2018-04-18T07:43:30.362Z,15.50
2018-04-18T07:46:01.457Z,15.13
2018-04-18T07:48:32.421Z,15.23
2018-04-18T07:51:03.450Z,14.13
2018-04-18T07:53:34.386Z,12.82
2018-04-18T07:56:05.483Z,12.32
2018-04-18T07:58:36.330Z,12.57
2018-04-18T08:01:07.465Z,13.02
2018-04-18T08:03:38.463Z,12.25
2018-04-18T08:06:09.382Z,11.05
2018-04-18T08:08:40.506Z,10.80
2018-04-18T08:11:11.384Z,10.43
2018-04-18T08:13:41.948Z,10.62
2018-04-18T08:16:12.456Z,8.90
2018-04-18T08:18:43.431Z,9.93
2018-04-18T08:21:14.458Z,10.50
2018-04-18T08:23:45.306Z,9.32
2018-04-18T08:26:16.063Z,9.66
2018-04-18T08:28:46.698Z,9.70
2018-04-18T08:31:17.338Z,8.64
2018-04-18T08:33:47.995Z,8.58
2018-04-18T08:36:18.726Z,8.54
2018-04-18T08:38:48.651Z,8.10
2018-04-18T08:41:19.453Z,7.35
2018-04-18T08:43:50.350Z,5.47
2018-04-18T08:46:21.452Z,5.60
2018-04-18T08:48:52.408Z,5.78
2018-04-18T08:51:23.406Z,5.12
2018-04-18T08:53:54.389Z,4.50
2018-04-18T08:56:25.459Z,4.28
2018-04-18T08:58:56.742Z,4.78
2018-04-18T09:01:27.657Z,4.70
2018-04-18T09:03:58.014Z,4.94
2018-04-18T09:06:28.579Z,4.46
2018-04-18T09:08:59.525Z,5.45
2018-04-18T09:11:30.486Z,5.20
2018-04-18T09:14:01.398Z,4.90
2018-04-18T09:16:32.100Z,4.46
2018-04-18T09:19:02.762Z,4.56
2018-04-18T09:21:33.518Z,4.85
2018-04-18T09:24:04.410Z,4.78
2018-04-18T09:26:35.902Z,4.60
2018-04-18T09:29:06.530Z,5.20
2018-04-18T09:31:37.603Z,4.50
2018-04-18T09:34:08.396Z,4.43
2018-04-18T09:36:39.390Z,3.97
2018-04-18T09:39:10.350Z,4.47
2018-04-18T09:41:41.318Z,4.90
2018-04-18T09:44:11.953Z,4.76
2018-04-18T09:46:42.467Z,5.47
2018-04-18T09:49:13.299Z,4.95
2018-04-18T09:51:44.416Z,5.25
2018-04-18T09:54:15.461Z,4.93
2018-04-18T09:56:46.017Z,4.74
2018-04-18T09:59:16.707Z,5.50
2018-04-18T10:01:49.843Z,5.37
2018-04-18T10:04:24.991Z,5.38
2018-04-18T10:06:54.476Z,5.10
2018-04-18T10:09:23.508Z,6.23
2018-04-18T10:11:57.805Z,4.77
2018-04-18T10:14:27.441Z,5.05
2018-04-18T10:16:56.700Z,4.87
2018-04-18T10:19:25.700Z,5.47
2018-04-18T10:21:55.315Z,4.58
2018-04-18T10:24:26.422Z,4.85
2018-04-18T10:26:56.829Z,4.75
2018-04-18T10:29:27.545Z,5.05
2018-04-18T10:31:58.342Z,4.60
2018-04-18T10:34:29.107Z,4.66
2018-04-18T10:36:59.761Z,4.58
2018-04-18T10:39:30.214Z,3.97
2018-04-18T10:42:00.874Z,4.22
2018-04-18T10:44:31.502Z,4.37
2018-04-18T10:47:02.269Z,4.32
2018-04-18T10:49:33.438Z,4.72
2018-04-18T10:52:04.127Z,4.70
2018-04-18T10:54:35.099Z,4.40
2018-04-18T10:57:06.115Z,4.68
2018-04-18T10:59:37.196Z,4.12
2018-04-18T11:02:08.196Z,4.20
2018-04-18T11:04:39.238Z,3.67
2018-04-18T11:07:10.090Z,3.72
2018-04-18T11:09:41.740Z,3.25
2018-04-18T11:12:12.395Z,3.80
2018-04-18T11:14:43.540Z,3.65
2018-04-18T11:17:14.355Z,2.97
2018-04-18T11:19:45.419Z,3.00
2018-04-18T11:22:16.327Z,2.87
2018-04-18T11:24:47.175Z,3.05
2018-04-18T11:27:18.286Z,3.60
2018-04-18T11:29:49.322Z,2.87
2018-04-18T11:32:20.300Z,3.08
2018-04-18T11:34:51.374Z,2.90
2018-04-18T11:37:22.263Z,3.05
2018-04-18T11:39:53.371Z,3.33
2018-04-18T11:42:24.386Z,3.30
2018-04-18T11:44:55.640Z,3.36
2018-04-18T11:47:26.378Z,2.95
2018-04-18T11:49:57.196Z,2.90
2018-04-18T11:52:28.233Z,3.05
2018-04-18T11:54:59.299Z,3.33
2018-04-18T11:57:30.300Z,2.97
2018-04-18T12:00:01.464Z,3.03
2018-04-18T12:02:39.115Z,3.45
2018-04-18T12:05:08.278Z,3.60
2018-04-18T12:07:37.777Z,3.50
2018-04-18T12:10:06.830Z,2.97
2018-04-18T12:12:36.771Z,3.08
2018-04-18T12:15:08.380Z,3.12
2018-04-18T12:17:39.003Z,3.44
2018-04-18T12:20:09.628Z,2.74
2018-04-18T12:22:40.411Z,3.05
2018-04-18T12:25:11.250Z,2.97
2018-04-18T12:27:41.962Z,4.12
2018-04-18T12:30:12.631Z,3.50
2018-04-18T12:32:43.478Z,2.92
2018-04-18T12:35:14.380Z,3.30
2018-04-18T12:37:45.306Z,2.95
2018-04-18T12:40:15.766Z,3.26
2018-04-18T12:42:46.418Z,2.83
2018-04-18T12:45:17.448Z,3.12
2018-04-18T12:47:48.503Z,3.35
2018-04-18T12:50:19.335Z,3.17
2018-04-18T12:52:50.063Z,3.18
2018-04-18T12:55:20.882Z,3.18
2018-04-18T12:57:51.399Z,2.85
2018-04-18T13:00:22.271Z,3.30
2018-04-18T13:02:53.347Z,2.62
2018-04-18T13:05:24.064Z,3.36
2018-04-18T13:07:54.802Z,2.72
2018-04-18T13:10:25.290Z,2.58
2018-04-18T13:12:56.312Z,3.30
2018-04-18T13:15:27.926Z,2.54
2018-04-18T13:17:57.713Z,2.95
2018-04-18T13:20:28.479Z,3.20
2018-04-18T13:22:59.205Z,2.85
2018-04-18T13:25:30.215Z,3.28
2018-04-18T13:28:01.331Z,3.20
2018-04-18T13:30:32.299Z,2.47
2018-04-18T13:33:02.956Z,2.92
2018-04-18T13:35:33.621Z,2.92
2018-04-18T13:38:05.161Z,3.05
2018-04-18T13:40:35.683Z,3.32
2018-04-18T13:43:06.569Z,3.35
2018-04-18T13:45:37.782Z,3.08
2018-04-18T13:48:08.552Z,3.00
2018-04-18T13:50:40.719Z,3.18
2018-04-18T13:53:10.718Z,3.00
2018-04-18T13:55:41.448Z,2.75
2018-04-18T13:58:12.019Z,2.88
2018-04-18T14:00:42.678Z,2.68
2018-04-18T14:03:13.454Z,3.17
2018-04-18T14:05:44.343Z,2.67
2018-04-18T14:08:15.402Z,2.95
2018-04-18T14:10:46.316Z,2.83
2018-04-18T14:13:17.435Z,2.85
2018-04-18T14:15:48.296Z,3.10
2018-04-18T14:18:22.998Z,3.47
2018-04-18T14:20:53.064Z,2.93
2018-04-18T14:23:23.883Z,3.33
2018-04-18T14:25:52.900Z,3.30
2018-04-18T14:28:23.512Z,3.50
2018-04-18T14:30:55.262Z,3.28
2018-04-18T14:33:26.041Z,3.18
2018-04-18T14:35:56.774Z,2.94
2018-04-18T14:38:27.408Z,3.25
2018-04-18T14:40:58.649Z,2.70
2018-04-18T14:43:29.401Z,3.03
2018-04-18T14:46:00.323Z,2.95
2018-04-18T14:48:31.664Z,3.20
2018-04-18T14:51:03.174Z,3.42
2018-04-18T14:53:33.890Z,2.90
2018-04-18T14:56:04.079Z,3.07
2018-04-18T14:58:35.117Z,2.70
2018-04-18T15:01:06.095Z,2.67
2018-04-18T15:03:37.154Z,2.90
2018-04-18T15:06:08.277Z,2.70
2018-04-18T15:08:39.291Z,2.78
2018-04-18T15:11:10.287Z,2.55
2018-04-18T15:13:41.332Z,2.72
2018-04-18T15:16:12.326Z,2.67
2018-04-18T15:18:43.398Z,2.92
2018-04-18T15:21:14.327Z,3.47
2018-04-18T15:23:45.454Z,2.50
2018-04-18T15:26:16.284Z,2.80
2018-04-18T15:28:47.327Z,3.20
2018-04-18T15:31:18.853Z,3.06
2018-04-18T15:33:49.488Z,2.75
2018-04-18T15:36:20.415Z,2.72
2018-04-18T15:38:51.464Z,2.58
2018-04-18T15:41:22.376Z,2.58
2018-04-18T15:43:53.341Z,3.22
2018-04-18T15:46:24.318Z,2.90
2018-04-18T15:48:55.344Z,2.75
2018-04-18T15:51:29.993Z,2.70
2018-04-18T15:53:59.574Z,3.20
2018-04-18T15:56:28.638Z,2.90
2018-04-18T15:58:58.677Z,3.05
2018-04-18T16:01:29.511Z,2.60
2018-04-18T16:04:00.327Z,3.15
2018-04-18T16:06:31.386Z,2.92
2018-04-18T16:09:02.283Z,3.55
2018-04-18T16:11:32.964Z,3.16
2018-04-18T16:14:03.599Z,3.24
2018-04-18T16:16:34.426Z,3.20
2018-04-18T16:19:05.377Z,3.10
2018-04-18T16:21:36.335Z,3.22
2018-04-18T16:24:06.976Z,3.10
2018-04-18T16:26:37.502Z,3.22
2018-04-18T16:29:19.108Z,3.94
2018-04-18T16:31:48.127Z,5.10
2018-04-18T16:34:17.194Z,4.43
2018-04-18T16:36:46.199Z,3.27
2018-04-18T16:39:15.755Z,3.82
2018-04-18T16:41:44.559Z,4.82
2018-04-18T16:44:13.557Z,3.30
2018-04-18T16:46:44.335Z,4.07
2018-04-18T16:49:15.396Z,3.80
2018-04-18T16:51:46.422Z,4.05
2018-04-18T16:54:17.322Z,3.70
2018-04-18T16:56:48.035Z,3.76
2018-04-18T16:59:18.628Z,3.18
2018-04-18T17:01:49.425Z,3.30
2018-04-18T17:04:20.444Z,3.10
2018-04-18T17:06:51.356Z,3.62
2018-04-18T17:09:22.219Z,3.44
2018-04-18T17:11:52.999Z,3.30
2018-04-18T17:14:23.525Z,3.52
2018-04-18T17:16:54.500Z,3.83
2018-04-18T17:19:25.301Z,3.53
2018-04-18T17:21:56.078Z,3.38
2018-04-18T17:24:29.011Z,3.64
2018-04-18T17:26:58.012Z,3.80
2018-04-18T17:29:28.716Z,3.80
2018-04-18T17:31:59.288Z,4.50
2018-04-18T17:34:29.767Z,4.60
2018-04-18T17:37:00.593Z,5.10
2018-04-18T17:39:31.435Z,5.18
2018-04-18T17:42:02.467Z,4.70
2018-04-18T17:44:33.568Z,5.32
2018-04-18T17:47:06.699Z,5.22
2018-04-18T17:49:35.681Z,4.35
2018-04-18T17:52:06.434Z,4.62
2018-04-18T17:54:37.047Z,4.88
2018-04-18T17:57:10.449Z,4.38
2018-04-18T17:59:39.389Z,4.17
2018-04-18T18:02:08.514Z,4.07
2018-04-18T18:04:38.693Z,4.07
2018-04-18T18:07:09.731Z,4.07
2018-04-18T18:09:40.564Z,4.03
2018-04-18T18:12:11.630Z,4.12
2018-04-18T18:14:42.659Z,5.12
2018-04-18T18:17:13.699Z,4.57
2018-04-18T18:19:44.465Z,4.12
2018-04-18T18:22:16.099Z,4.48
2018-04-18T18:24:47.672Z,4.38
2018-04-18T18:27:19.542Z,4.34
2018-04-18T18:29:53.291Z,4.18
2018-04-18T18:32:22.330Z,4.20
2018-04-18T18:34:52.914Z,4.64
2018-04-18T18:37:23.637Z,4.25
2018-04-18T18:39:54.482Z,3.97
2018-04-18T18:42:25.491Z,3.83
2018-04-18T18:44:56.485Z,4.50
2018-04-18T18:47:27.965Z,4.22
2018-04-18T18:49:58.653Z,4.04
2018-04-18T18:52:29.542Z,6.22
2018-04-18T18:55:00.251Z,7.78
2018-04-18T18:57:34.382Z,6.18
2018-04-18T19:00:03.374Z,4.40
2018-04-18T19:02:33.053Z,4.00
2018-04-18T19:05:03.698Z,5.06
2018-04-18T19:07:33.816Z,4.45
2018-04-18T19:10:04.412Z,4.72
2018-04-18T19:12:35.487Z,5.95
2018-04-18T19:15:06.278Z,5.32
2018-04-18T19:17:37.391Z,6.20
2018-04-18T19:20:06.410Z,5.07
2018-04-18T19:22:37.028Z,4.50
2018-04-18T19:25:07.894Z,5.10
2018-04-18T19:27:38.880Z,4.45
2018-04-18T19:30:09.642Z,4.62
2018-04-18T19:32:41.206Z,5.42
2018-04-18T19:35:11.950Z,5.78
2018-04-18T19:37:42.733Z,4.85
2018-04-18T19:40:13.878Z,5.70
2018-04-18T19:42:44.470Z,6.47
2018-04-18T19:45:15.935Z,5.40
2018-04-18T19:47:47.059Z,6.15
2018-04-18T19:50:18.156Z,6.80
2018-04-18T19:52:49.146Z,7.25
2018-04-18T19:55:20.230Z,6.57
2018-04-18T19:57:51.279Z,5.40
2018-04-18T20:00:26.870Z,6.00
2018-04-18T20:02:55.831Z,6.17
2018-04-18T20:05:24.658Z,5.70
2018-04-18T20:07:55.490Z,6.30
2018-04-18T20:10:26.434Z,6.50
2018-04-18T20:12:58.311Z,5.86
2018-04-18T20:15:29.028Z,5.68
2018-04-18T20:17:59.640Z,6.56
2018-04-18T20:20:30.283Z,5.60
2018-04-18T20:23:01.062Z,5.50
2018-04-18T20:25:31.834Z,5.52
2018-04-18T20:28:02.602Z,5.82
2018-04-18T20:30:33.636Z,5.57
2018-04-18T20:33:04.500Z,5.55
2018-04-18T20:35:35.479Z,5.43
2018-04-18T20:38:06.540Z,5.47
2018-04-18T20:40:37.325Z,5.53
2018-04-18T20:43:08.459Z,5.53
2018-04-18T20:45:39.402Z,6.00
2018-04-18T20:48:10.403Z,6.00
2018-04-18T20:50:41.395Z,5.37
2018-04-18T20:53:12.470Z,7.55
2018-04-18T20:55:44.223Z,6.53
2018-04-18T20:58:14.958Z,6.26
2018-04-18T21:00:45.399Z,5.53
2018-04-18T21:03:16.455Z,5.47
2018-04-18T21:05:47.203Z,5.75
2018-04-18T21:08:18.242Z,6.43
2018-04-18T21:10:49.323Z,7.03
2018-04-18T21:13:20.375Z,5.97
2018-04-18T21:15:51.393Z,6.18
2018-04-18T21:18:22.361Z,7.03
2018-04-18T21:20:53.354Z,5.53
2018-04-18T21:23:24.398Z,7.18
2018-04-18T21:25:55.719Z,5.93
2018-04-18T21:28:26.414Z,5.87
2018-04-18T21:30:57.458Z,5.62
2018-04-18T21:33:33.184Z,6.37
2018-04-18T21:36:02.127Z,5.75
2018-04-18T21:38:31.203Z,6.53
2018-04-18T21:41:01.654Z,5.55
2018-04-18T21:43:32.642Z,5.62
2018-04-18T21:46:03.342Z,5.82
2018-04-18T21:48:34.352Z,5.28
2018-04-18T21:51:05.344Z,7.20
2018-04-18T21:53:36.374Z,6.28
2018-04-18T21:56:06.971Z,6.10
2018-04-18T21:58:37.744Z,5.46
2018-04-18T22:01:08.271Z,5.43
2018-04-18T22:03:39.302Z,5.55
2018-04-18T22:06:10.298Z,5.55
2018-04-18T22:08:41.009Z,6.00
2018-04-18T22:11:11.676Z,7.86
2018-04-18T22:13:42.389Z,7.18
2018-04-18T22:16:13.358Z,7.85
2018-04-18T22:18:44.398Z,8.48
2018-04-18T22:21:14.907Z,10.05
2018-04-18T22:23:45.538Z,9.90
2018-04-18T22:26:16.479Z,9.82
2018-04-18T22:28:47.430Z,10.52
2018-04-18T22:31:17.931Z,8.75
2018-04-18T22:33:48.752Z,10.63
2018-04-18T22:36:19.331Z,11.55
2018-04-18T22:38:50.848Z,13.28
2018-04-18T22:41:20.870Z,13.45
2018-04-18T22:43:51.793Z,11.98
2018-04-18T22:46:22.501Z,10.15
2018-04-18T22:48:53.521Z,10.68
2018-04-18T22:51:24.195Z,10.88
2018-04-18T22:53:54.914Z,11.18
2018-04-18T22:56:25.627Z,11.02
2018-04-18T22:58:56.505Z,11.32
2018-04-18T23:01:27.319Z,11.07
2018-04-18T23:03:58.408Z,9.88
2018-04-18T23:06:29.058Z,11.48
2018-04-18T23:08:59.757Z,12.72
2018-04-18T23:11:30.786Z,10.77
2018-04-18T23:14:01.398Z,10.75
2018-04-18T23:16:32.383Z,10.70
2018-04-18T23:19:02.904Z,10.40
2018-04-18T23:21:33.439Z,10.35
2018-04-18T23:24:04.510Z,11.18
2018-04-18T23:26:36.009Z,13.36
2018-04-18T23:29:06.827Z,15.02
2018-04-18T23:31:37.314Z,13.06
2018-04-18T23:34:08.087Z,11.76
2018-04-18T23:36:38.755Z,13.44
2018-04-18T23:39:09.419Z,14.00
2018-04-18T23:41:40.174Z,17.70
2018-04-18T23:44:11.969Z,15.78
2018-04-18T23:46:42.678Z,15.04
2018-04-18T23:49:13.429Z,16.40
2018-04-18T23:51:44.484Z,17.67
2018-04-18T23:54:15.633Z,15.70
2018-04-18T23:56:46.379Z,16.85
2018-04-18T23:59:17.868Z,16.68
